Marina, California
Current Conditions -  °F | °C
As of 2:16 AM on Saturday 20 Dec 2014 (Local Time) from KMRY Reporting Station
Overcast Overcast  
Wind Chill: 57°   Ceiling: 3000
Heat Index: 57°   Visibility: 10mi
Dew Point: 57°   Wind: 0mph
Humidity: 100%   Direction: NA
Pressure: 30.14"   Gusts: NA
Location:  36.68°N, 121.8°W
Report Text: KMRY 201016Z 00000KT 10SM SCT025 BKN030 OVC035 14/14 A3014 RMK AO2
Loading
Personal Weather Stations






























Interactive Weather Map New forecast layout! Learn more

10-Day Weather Forecast

Advertisements
Track Severe Weather on mobile